Darstellungsparameter: Aktuell verwendete Einstellungen:
Skalierung der Graphiken ... ?
xyx+y,   Skalierungsfaktor:      Skalierung: Modus: x, Faktor: 1
Darstellungszeitraum ... ?
Vom - - bis: - -   Zeitraum: 25.04.2007 - 24.04.2017
Min/Max/Avg-Anzeige ... ?
Zeige MMA aktuell
Zeige MMA Monat
Zeige MMA alles
Zeige --A aktuell
Zeige --A Monat
Zeige --A alles
Keine MMA-Anzeige
MMA:
Keine MMA-Graphiken
MMA-Basis: 25.04.2007 - 24.04.2017
Quicknavigation für Darstellung... ?
Tage:      1T, 2T, 3T, 5T -1T -2T -3T -5T +1T +2T +3T +5T
Wochen: 1W, 2W, 3W -1W -2W -3W +1W +2W +3W
Monate: 1M, 3M, 6M -1M -3M -6M +1M +3M +6M
Jahre:    1J, 3J, 5J, 10J -1J -3J -5J -10J +1J +3J +5J +10J
Nutze für die Darstellung ... ?
Originaldaten oder ...
Mittelwerte Minima Maxima auf...
Stundenbasis Tagesbasis Wochenbasis
Monatsbasis Jahresbasis      Datenbasis: Mittelwerte auf Monatsbasis
Darstellen als:
Statistik (Auto) Statistik J:M      Darstellung:
Zur Graphik,    zurück zur Übersicht aller Sensoren.
 
Tabellarische Datenbersicht: ?
 
Sensor: Nr:Datum:Temp:Feuchte:Taupunkt:
Aussen-T/F 1 01-04-2007 00:00:00 13.64719 C 48.5467 % 3.01 C
2 01-05-2007 00:00:00 17.03196 C 58.1341 % 8.75 C
3 01-06-2007 00:00:00 19.58027 C 61.8656 % 12.07 C
4 01-07-2007 00:00:00 19.45619 C 57.2743 % 10.79 C
5 01-08-2007 00:00:00 18.81883 C 63.0121 % 11.63 C
6 01-09-2007 00:00:00 14.45221 C 69.5969 % 8.97 C
7 01-10-2007 00:00:00 12.08977 C 73.3647 % 7.48 C
8 01-11-2007 00:00:00 5.44725 C 78.1165 % 1.95 C
9 01-12-2007 00:00:00 2.48122 C 75.6524 % -1.37 C
10 01-01-2008 00:00:00 5.34954 C 70.1278 % 0.36 C
11 01-02-2008 00:00:00 4.38505 C 65.6047 % -1.48 C
12 01-03-2008 00:00:00 6.34296 C 57.7334 % -1.36 C
13 01-04-2008 00:00:00 9.64593 C 65.1593 % 3.43 C
14 01-05-2008 00:00:00 18.62709 C 49.3898 % 7.83 C
15 01-06-2008 00:00:00 20.05406 C 54.4138 % 10.58 C
16 01-07-2008 00:00:00 20.20426 C 56.3209 % 11.24 C
17 01-08-2008 00:00:00 19.95194 C 57.1634 % 11.23 C
18 01-09-2008 00:00:00 13.56618 C 68.8301 % 7.96 C
19 01-10-2008 00:00:00 11.42875 C 75.4641 % 7.25 C
20 01-11-2008 00:00:00 6.07023 C 78.9619 % 2.7 C
21 01-12-2008 00:00:00 1.52941 C 83.0517 % -1.03 C
22 01-01-2009 00:00:00 -1.56764 C 73.8579 % -5.61 C
23 01-02-2009 00:00:00 3.01325 C 69.3976 % -2.03 C
24 01-03-2009 00:00:00 6.41904 C 62.8080 % -0.14 C
25 01-04-2009 00:00:00 14.62991 C 57.2299 % 6.27 C
Sensor: Nr:Datum:Temp:Feuchte:Taupunkt:
Aussen-T/F 26 01-05-2009 00:00:00 16.6395 C 57.6761 % 8.27 C
27 01-06-2009 00:00:00 18.12632 C 57.6226 % 9.64 C
28 01-07-2009 00:00:00 20.92787 C 56.1243 % 11.86 C
29 01-08-2009 00:00:00 21.42827 C 53.3276 % 11.55 C
30 01-09-2009 00:00:00 16.89747 C 65.4890 % 10.39 C
31 01-10-2009 00:00:00 10.34649 C 73.7545 % 5.87 C
32 01-11-2009 00:00:00 9.28793 C 75.2989 % 5.15 C
33 01-12-2009 00:00:00 2.38203 C 77.6482 % -1.11 C
34 01-01-2010 00:00:00 -1.14228 C 78.4890 % -4.4 C
35 01-02-2010 00:00:00 3.48183 C 70.5308 % -1.36 C
36 01-03-2010 00:00:00 6.48443 C 59.4221 % -0.84 C
37 01-04-2010 00:00:00 11.72868 C 49.0939 % 1.41 C
38 01-05-2010 00:00:00 12.94841 C 62.8849 % 6.06 C
39 01-06-2010 00:00:00 19.98271 C 51.1649 % 9.6 C
40 01-07-2010 00:00:00 23.10471 C 48.6740 % 11.71 C
41 01-08-2010 00:00:00 18.81238 C 63.4060 % 11.72 C
42 01-09-2010 00:00:00 14.44098 C 70.1351 % 9.07 C
43 01-10-2010 00:00:00 10.03789 C 72.3458 % 5.3 C
44 01-11-2010 00:00:00 6.37202 C 76.8902 % 2.62 C
45 01-12-2010 00:00:00 -1.81525 C 78.0366 % -5.13 C
46 01-01-2011 00:00:00 2.43723 C 79.0759 % -0.81 C
47 01-02-2011 00:00:00 3.34179 C 71.5377 % -1.3 C
48 01-03-2011 00:00:00 6.50695 C 62.0097 % -0.23 C
49 01-04-2011 00:00:00 12.89077 C 59.1979 % 5.13 C
50 01-05-2011 00:00:00 15.42354 C 52.0113 % 5.63 C
Sensor: Nr:Datum:Temp:Feuchte:Taupunkt:
Aussen-T/F 51 01-06-2011 00:00:00 17.40752 C 62.4020 % 10.15 C
52 01-07-2011 00:00:00 17.39201 C 60.8243 % 9.76 C
53 01-08-2011 00:00:00 18.39148 C 67.1958 % 12.2 C
54 01-09-2011 00:00:00 16.01184 C 69.4729 % 10.43 C
55 01-10-2011 00:00:00 9.87443 C 76.3712 % 5.92 C
56 01-11-2011 00:00:00 5.13926 C 84.5921 % 2.76 C
57 01-12-2011 00:00:00 5.33432 C 83.7268 % 2.81 C
58 01-01-2012 00:00:00 4.20245 C 85.3201 % 1.96 C
59 01-02-2012 00:00:00 -0.246 C 79.6815 % -3.32 C
60 01-03-2012 00:00:00 8.51141 C 76.6234 % 4.65 C
61 01-04-2012 00:00:00 9.15274 C 74.6306 % 4.89 C
62 01-05-2012 00:00:00 15.26411 C 75.0217 % 10.87 C
63 01-06-2012 00:00:00 16.04878 C 80.7488 % 12.74 C
64 01-07-2012 00:00:00 17.73049 C 78.8409 % 14.01 C
65 01-08-2012 00:00:00 19.14394 C 74.9561 % 14.6 C
66 01-09-2012 00:00:00 13.74771 C 81.3480 % 10.61 C
67 01-10-2012 00:00:00 9.5139 C 88.8251 % 7.76 C
68 01-11-2012 00:00:00 6.4213 C 89.7428 % 4.86 C
69 01-12-2012 00:00:00 3.96629 C 89.4898 % 2.4 C
70 01-01-2013 00:00:00 2.16248 C 87.2756 % 0.27 C
71 01-02-2013 00:00:00 0.90825 C 86.1550 % -1.14 C
72 01-03-2013 00:00:00 2.27489 C 78.0485 % -1.15 C
73 01-04-2013 00:00:00 9.59169 C 71.8564 % 4.77 C
74 01-05-2013 00:00:00 12.31929 C 82.0669 % 9.35 C
75 01-06-2013 00:00:00 16.2181 C 79.2979 % 12.63 C
Sensor: Nr:Datum:Temp:Feuchte:Taupunkt:
Aussen-T/F 76 01-07-2013 00:00:00 20.04374 C 77.5509 % 16 C
77 01-08-2013 00:00:00 17.4935 C 82.7165 % 14.52 C
78 01-09-2013 00:00:00 14.1931 C 86.8955 % 12.04 C
79 01-10-2013 00:00:00 11.69105 C 91.1427 % 10.3 C
80 01-11-2013 00:00:00 6.27044 C 90.7786 % 4.88 C
81 01-12-2013 00:00:00 5.0276 C 89.4526 % 3.44 C
82 01-01-2014 00:00:00 5.299 C 90.3910 % 3.86 C
83 01-02-2014 00:00:00 5.91773 C 85.1900 % 3.63 C
84 01-03-2014 00:00:00 7.98323 C 78.1804 % 4.42 C
85 01-04-2014 00:00:00 12.78205 C 75.1304 % 8.49 C
86 01-05-2014 00:00:00 13.9336 C 76.7130 % 9.92 C
87 01-06-2014 00:00:00 17.70175 C 71.1031 % 12.4 C
88 01-07-2014 00:00:00 20.17458 C 77.8509 % 16.19 C
89 01-08-2014 00:00:00 16.4643 C 85.7851 % 14.08 C
90 01-09-2014 00:00:00 15.50465 C 90.0158 % 13.87 C
91 01-10-2014 00:00:00 12.61647 C 93.4233 % 11.58 C
92 01-11-2014 00:00:00 7.86465 C 94.6649 % 7.06 C
93 01-12-2014 00:00:00 4.81205 C 90.8343 % 3.44 C
94 01-01-2015 00:00:00 3.72555 C 88.9311 % 2.07 C
95 01-02-2015 00:00:00 3.05527 C 86.6536 % 1.05 C
96 01-03-2015 00:00:00 6.39693 C 82.5335 % 3.65 C
97 01-04-2015 00:00:00 10.36598 C 71.7014 % 5.48 C
98 01-05-2015 00:00:00 14.07531 C 73.2255 % 9.36 C
99 01-06-2015 00:00:00 17.29228 C 73.4007 % 12.49 C
100 01-07-2015 00:00:00 21.37994 C 68.0782 % 15.25 C
Sensor: Nr:Datum:Temp:Feuchte:Taupunkt:
Aussen-T/F 101 01-08-2015 00:00:00 20.33613 C 74.6267 % 15.68 C
102 01-09-2015 00:00:00 13.69299 C 85.6093 % 11.33 C
103 01-10-2015 00:00:00 9.51401 C 90.3862 % 8.02 C
104 01-11-2015 00:00:00 8.865 C 89.6079 % 7.25 C
105 01-12-2015 00:00:00 7.80433 C 92.2309 % 6.62 C
106 01-01-2016 00:00:00 3.98089 C 90.5594 % 2.58 C
107 01-02-2016 00:00:00 4.85946 C 86.5095 % 2.8 C
108 01-03-2016 00:00:00 5.35347 C 83.8266 % 2.84 C
109 01-04-2016 00:00:00 9.1925 C 77.5892 % 5.49 C
110 01-05-2016 00:00:00 14.42697 C 76.5149 % 10.35 C
111 01-06-2016 00:00:00 17.47186 C 85.5889 % 15.03 C
112 01-07-2016 00:00:00 19.3988 C 80.8493 % 16.03 C
113 01-08-2016 00:00:00 18.44104 C 80.9870 % 15.12 C
114 01-09-2016 00:00:00 17.14113 C 81.8107 % 14.01 C
115 01-10-2016 00:00:00 9.46091 C 92.7646 % 8.35 C
116 01-11-2016 00:00:00 5.51435 C 92.1532 % 4.34 C
117 01-12-2016 00:00:00 3.09223 C 92.3398 % 1.97 C
118 01-01-2017 00:00:00 -0.95289 C 91.0813 % -2.22 C
119 01-02-2017 00:00:00 5.07645 C 87.6373 % 3.2 C
120 01-03-2017 00:00:00 8.9644 C 78.2871 % 5.39 C
121 01-04-2017 00:00:00 9.26486 C 72.9994 % 4.68 C

Maximal/Minimal-Werte vom 25.04.2007 - 24.04.2017

Sensor Min Max Avg
Temp
(Aussen-T/F)
-16.4 °C
20-12-2009  01:30:01
38.6 °C
04-07-2015  16:30:00
10.77 °C
Feuchte
(Aussen-T/F)
18 %
17-07-2015  15:55:00
100 %
07-10-2012  03:05:00
78.43 %
Taupunkt
(Aussen-T/F)
-5.61 C
01-01-2009  00:00:00
16.19 C
01-07-2014  00:00:00
6.39 C

Die Daten stammen von einer Davis Vantage Pro 2 Wetter-Station und werden unter Linux mit der Software wview2wettercgi und aufbereitet. Alle Angaben erfolgen ohne Gewähr für ihre Vollständigkeit oder Richtigkeit.
Kontakt: Rainer Krienke krienke@uni-koblenz.de . Meine Webseiten an der Uni Koblenz oder privat.
Version: $Revision: 0.78 $